Time;durP1;ratioP1;P1;durP2;ratioP2;P2;SDS_P1;SDS_P2;PMS_P1;PMS_P2;Temp;Humidity;BMP_temperature;BMP_pressure;BME280_temperature;BME280_humidity;BME280_pressure;Samples;Min_cycle;Max_cycle;Signal;HPM_P1;HPM_P2
2021/04/22 00:01:43;;;;;;;8.50;6.10;;;11.30;64.20;;;;;;5105244;28;27469;-56
2021/04/22 00:04:29;;;;;;;8.25;5.95;;;11.30;64.20;;;;;;5105415;28;27321;-55
2021/04/22 00:07:42;;;;;;;8.68;6.72;;;11.30;64.40;;;;;;5101987;28;27394;-56
2021/04/22 00:11:08;;;;;;;10.68;6.05;;;11.30;64.50;;;;;;5101996;28;27403;-57
2021/04/22 00:14:35;;;;;;;6.65;5.72;;;11.20;65.00;;;;;;5104747;28;27457;-56
2021/04/22 00:17:54;;;;;;;9.57;6.10;;;11.10;64.40;;;;;;5104940;28;27417;-56
2021/04/22 00:21:08;;;;;;;9.20;5.88;;;11.10;64.40;;;;;;5104687;28;27981;-56
2021/04/22 00:24:13;;;;;;;8.35;5.70;;;11.00;64.70;;;;;;5105163;28;27528;-57
2021/04/22 00:27:27;;;;;;;8.57;5.55;;;11.00;64.90;;;;;;5104068;28;27428;-56
2021/04/22 00:30:54;;;;;;;7.72;5.90;;;10.90;64.90;;;;;;5104736;28;27362;-57
2021/04/22 00:34:25;;;;;;;8.57;5.93;;;10.90;64.90;;;;;;5104246;28;27349;-56
2021/04/22 00:37:53;;;;;;;7.80;5.97;;;10.80;65.00;;;;;;5103916;28;27408;-56
2021/04/22 00:41:22;;;;;;;8.65;5.68;;;10.80;65.00;;;;;;5103619;27;27434;-57
2021/04/22 00:44:50;;;;;;;7.85;5.88;;;10.70;65.00;;;;;;5104533;28;27457;-56
2021/04/22 00:48:36;;;;;;;8.60;5.78;;;10.70;65.30;;;;;;5101104;28;27427;-56
2021/04/22 00:51:59;;;;;;;6.95;5.53;;;10.70;65.10;;;;;;5104378;28;27378;-56
2021/04/22 00:55:21;;;;;;;8.20;5.80;;;10.60;65.00;;;;;;5086043;28;27384;-56
2021/04/22 00:58:27;;;;;;;7.28;5.88;;;10.60;65.20;;;;;;5100774;28;27414;-56
2021/04/22 01:01:41;;;;;;;8.23;6.65;;;10.60;65.10;;;;;;5104343;28;27403;-57
2021/04/22 01:04:35;;;;;;;7.95;6.20;;;10.60;64.90;;;;;;5101157;28;27481;-56
2021/04/22 01:08:03;;;;;;;8.63;6.60;;;10.60;65.00;;;;;;5104139;28;27501;-56
2021/04/22 01:11:38;;;;;;;7.88;6.53;;;10.60;64.90;;;;;;5102716;28;27415;-56
2021/04/22 01:14:44;;;;;;;6.90;5.78;;;10.50;65.60;;;;;;5104139;28;27848;-57
2021/04/22 01:17:57;;;;;;;8.70;6.28;;;10.50;64.70;;;;;;5103974;28;27359;-57
2021/04/22 01:21:25;;;;;;;9.70;6.72;;;10.50;64.90;;;;;;5104243;28;27472;-57
2021/04/22 01:24:45;;;;;;;8.35;6.25;;;10.50;65.10;;;;;;5104125;28;27411;-57
2021/04/22 01:27:57;;;;;;;9.23;6.65;;;10.50;65.00;;;;;;5081491;28;27608;-55
2021/04/22 01:31:25;;;;;;;11.05;6.30;;;10.50;65.00;;;;;;5081348;28;27407;-56
2021/04/22 01:34:46;;;;;;;10.38;6.93;;;10.50;64.90;;;;;;5081666;28;27494;-56
2021/04/22 01:37:46;;;;;;;8.23;6.47;;;10.50;64.90;;;;;;5081249;28;27388;-56
2021/04/22 01:40:35;;;;;;;10.77;6.93;;;10.50;65.00;;;;;;5081527;28;27529;-56
2021/04/22 01:44:02;;;;;;;9.35;7.20;;;10.50;65.10;;;;;;5081461;28;27505;-57
2021/04/22 01:47:52;;;;;;;13.18;7.70;;;10.50;65.20;;;;;;5080342;28;27599;-56
2021/04/22 01:51:08;;;;;;;10.20;7.32;;;10.40;65.30;;;;;;5081694;28;27599;-56
2021/04/22 01:54:24;;;;;;;10.27;7.85;;;10.40;65.30;;;;;;5080887;28;27845;-57
2021/04/22 01:57:28;;;;;;;8.93;6.78;;;10.40;65.30;;;;;;5069045;28;27403;-57
2021/04/22 02:00:35;;;;;;;10.18;7.13;;;10.30;65.20;;;;;;5085080;28;27452;-56
2021/04/22 02:03:27;;;;;;;10.35;6.75;;;10.30;65.40;;;;;;5103382;28;27351;-56
2021/04/22 02:06:38;;;;;;;9.15;6.68;;;10.30;65.60;;;;;;5056478;28;27858;-56
2021/04/22 02:09:55;;;;;;;8.75;6.82;;;10.30;65.50;;;;;;5101579;28;27479;-57
2021/04/22 02:13:12;;;;;;;10.43;7.82;;;10.30;65.80;;;;;;5103250;28;27443;-57
2021/04/22 02:16:26;;;;;;;9.00;7.47;;;10.30;65.80;;;;;;5073990;28;27407;-57
2021/04/22 02:19:36;;;;;;;10.48;7.30;;;10.20;65.90;;;;;;5103315;28;27449;-55
2021/04/22 02:22:48;;;;;;;9.85;7.30;;;10.20;66.10;;;;;;5100979;28;27414;-56
2021/04/22 02:25:53;;;;;;;11.75;7.78;;;10.20;66.30;;;;;;5101637;28;27443;-57
2021/04/22 02:29:06;;;;;;;9.70;7.15;;;10.20;66.30;;;;;;5102790;28;27385;-56
2021/04/22 02:32:32;;;;;;;10.95;6.97;;;10.20;66.50;;;;;;5103084;28;28012;-56
2021/04/22 02:35:44;;;;;;;13.52;7.78;;;10.20;66.50;;;;;;5103236;28;27430;-57
2021/04/22 02:39:09;;;;;;;10.23;8.02;;;10.20;66.50;;;;;;5101477;28;27427;-56
2021/04/22 02:41:57;;;;;;;7.88;7.07;;;10.20;66.60;;;;;;5102432;28;27447;-56
2021/04/22 02:45:24;;;;;;;10.63;8.52;;;10.20;66.60;;;;;;5099714;28;27559;-57
2021/04/22 02:48:42;;;;;;;10.57;7.82;;;10.10;66.80;;;;;;5102996;28;27424;-57
2021/04/22 02:51:55;;;;;;;10.07;7.22;;;10.20;66.50;;;;;;5101242;28;27394;-58
2021/04/22 02:54:48;;;;;;;11.93;8.13;;;10.20;66.70;;;;;;5098815;28;27378;-56
2021/04/22 02:57:59;;;;;;;10.43;6.82;;;10.20;66.70;;;;;;5098392;28;27414;-56
2021/04/22 03:01:12;;;;;;;11.05;8.25;;;10.20;66.70;;;;;;5101530;28;27534;-56
2021/04/22 03:04:39;;;;;;;10.98;8.32;;;10.20;66.70;;;;;;5102956;28;27395;-56
2021/04/22 03:07:47;;;;;;;11.43;8.20;;;10.20;66.90;;;;;;5102411;28;27419;-56
2021/04/22 03:11:00;;;;;;;10.82;7.22;;;10.30;66.70;;;;;;5102446;28;27504;-56
2021/04/22 03:14:37;;;;;;;8.38;7.40;;;10.30;66.80;;;;;;5083453;28;27527;-56
2021/04/22 03:18:03;;;;;;;9.68;7.50;;;10.30;66.90;;;;;;5083619;28;27522;-56
2021/04/22 03:21:30;;;;;;;13.07;7.70;;;10.30;67.10;;;;;;5069493;28;27554;-56
2021/04/22 03:24:23;;;;;;;9.15;7.55;;;10.20;67.10;;;;;;5083911;28;27450;-56
2021/04/22 03:27:51;;;;;;;11.02;8.00;;;10.30;67.20;;;;;;5083801;28;27403;-56
2021/04/22 03:31:18;;;;;;;10.13;7.57;;;10.30;67.50;;;;;;5083669;28;27486;-56
2021/04/22 03:34:31;;;;;;;11.13;7.78;;;10.30;67.60;;;;;;5083334;28;27387;-56
2021/04/22 03:38:03;;;;;;;10.07;7.50;;;10.30;67.60;;;;;;5065662;28;27920;-56
2021/04/22 03:40:56;;;;;;;11.50;8.70;;;10.30;67.70;;;;;;5082951;28;27651;-56
2021/04/22 03:44:30;;;;;;;11.80;8.45;;;10.30;67.80;;;;;;5088231;28;27382;-56
2021/04/22 03:47:43;;;;;;;13.02;8.23;;;10.30;67.90;;;;;;5104792;28;27490;-56
2021/04/22 03:50:57;;;;;;;15.27;9.10;;;10.30;67.80;;;;;;5102451;28;27386;-56
2021/04/22 03:54:24;;;;;;;11.05;8.15;;;10.30;67.90;;;;;;5105452;28;27348;-56
2021/04/22 03:57:45;;;;;;;12.43;8.63;;;10.30;67.90;;;;;;5105705;28;27390;-57
2021/04/22 04:00:45;;;;;;;13.70;8.23;;;10.30;67.90;;;;;;5105672;28;27417;-56
2021/04/22 04:04:10;;;;;;;10.43;8.23;;;10.30;67.90;;;;;;5106236;28;27454;-56
2021/04/22 04:07:38;;;;;;;15.02;9.05;;;10.30;68.00;;;;;;5106334;28;27583;-56
2021/04/22 04:11:06;;;;;;;9.50;7.85;;;10.30;67.80;;;;;;5105973;28;27399;-56
2021/04/22 04:14:06;;;;;;;11.23;7.65;;;10.30;67.80;;;;;;5105889;28;27377;-56
2021/04/22 04:17:34;;;;;;;11.95;8.43;;;10.30;67.80;;;;;;5105330;28;27821;-56
2021/04/22 04:21:23;;;;;;;10.55;8.13;;;10.20;67.80;;;;;;5102415;28;27416;-57
2021/04/22 04:24:54;;;;;;;10.95;8.55;;;10.20;68.10;;;;;;5104444;28;27339;-56
2021/04/22 04:28:06;;;;;;;10.85;8.73;;;10.20;68.20;;;;;;5104289;28;27324;-56
2021/04/22 04:31:11;;;;;;;10.40;7.90;;;10.20;68.30;;;;;;5105487;28;27497;-56
2021/04/22 04:34:25;;;;;;;10.07;8.05;;;10.20;68.30;;;;;;5105286;28;27497;-56
2021/04/22 04:37:31;;;;;;;15.82;9.23;;;10.20;68.50;;;;;;5105957;28;27464;-56
2021/04/22 04:40:58;;;;;;;10.73;8.88;;;10.20;68.40;;;;;;5105705;28;27444;-56
2021/04/22 04:44:12;;;;;;;13.25;8.68;;;10.20;68.50;;;;;;5103495;28;27699;-57
2021/04/22 04:47:26;;;;;;;11.32;8.82;;;10.20;68.50;;;;;;5104669;28;27476;-56
2021/04/22 04:50:31;;;;;;;11.50;8.52;;;10.20;68.50;;;;;;5105889;28;27409;-56
2021/04/22 04:53:44;;;;;;;11.55;9.15;;;10.20;68.80;;;;;;5105789;28;27401;-56
2021/04/22 04:56:58;;;;;;;12.63;9.27;;;10.10;69.00;;;;;;5104047;28;27875;-56
2021/04/22 05:00:06;;;;;;;10.05;8.35;;;10.20;69.10;;;;;;5105423;28;27525;-56
2021/04/22 05:03:11;;;;;;;11.80;8.48;;;10.10;69.10;;;;;;5104963;28;27404;-56
2021/04/22 05:06:38;;;;;;;15.00;9.38;;;10.10;69.30;;;;;;5105606;28;27460;-56
2021/04/22 05:10:20;;;;;;;13.50;9.45;;;10.10;69.30;;;;;;5104202;28;27450;-57
2021/04/22 05:13:34;;;;;;;13.45;10.48;;;10.10;69.50;;;;;;5104866;28;27450;-56
2021/04/22 05:16:27;;;;;;;14.93;9.20;;;10.20;69.80;;;;;;5105419;28;27601;-57
2021/04/22 05:19:41;;;;;;;13.60;10.45;;;10.20;69.60;;;;;;5102142;28;27363;-56
2021/04/22 05:22:47;;;;;;;12.35;9.60;;;10.20;69.90;;;;;;5105027;28;27332;-56
2021/04/22 05:26:00;;;;;;;12.90;9.73;;;10.20;70.00;;;;;;5105087;28;27386;-56
2021/04/22 05:29:09;;;;;;;13.98;10.27;;;10.20;70.00;;;;;;5100591;27;27295;-56
2021/04/22 05:32:20;;;;;;;13.68;10.10;;;10.20;70.30;;;;;;5105238;28;27420;-56
2021/04/22 05:35:35;;;;;;;18.02;13.55;;;10.20;70.40;;;;;;5101618;28;27368;-58
2021/04/22 05:39:02;;;;;;;14.85;10.23;;;10.20;70.80;;;;;;5104552;28;27539;-57
2021/04/22 05:42:24;;;;;;;19.00;12.43;;;10.20;70.90;;;;;;5104872;28;27390;-56
2021/04/22 05:46:13;;;;;;;17.88;13.02;;;10.30;71.10;;;;;;5101209;28;27550;-56
2021/04/22 05:49:24;;;;;;;17.42;11.88;;;10.30;71.40;;;;;;5103320;28;27846;-56
2021/04/22 05:52:32;;;;;;;22.92;14.77;;;10.40;71.60;;;;;;5103988;28;27390;-56
2021/04/22 05:55:26;;;;;;;18.55;14.00;;;10.40;71.70;;;;;;5104628;28;27385;-56
2021/04/22 05:58:51;;;;;;;18.92;14.43;;;10.40;71.80;;;;;;5104296;28;27382;-56
2021/04/22 06:02:18;;;;;;;19.50;14.73;;;10.50;71.60;;;;;;5104161;28;27317;-56
2021/04/22 06:05:32;;;;;;;25.98;17.58;;;10.50;71.40;;;;;;5103639;28;27312;-56
2021/04/22 06:08:52;;;;;;;26.52;16.05;;;10.60;71.60;;;;;;5104778;28;27392;-55
2021/04/22 06:12:19;;;;;;;19.30;15.55;;;10.70;71.60;;;;;;5104459;28;27425;-56
2021/04/22 06:15:34;;;;;;;21.25;15.50;;;10.80;71.40;;;;;;5104156;28;27624;-56
2021/04/22 06:18:45;;;;;;;23.98;16.85;;;10.90;71.50;;;;;;5089176;28;27399;-56
2021/04/22 06:22:12;;;;;;;31.13;17.85;;;11.00;71.50;;;;;;5102744;28;27431;-56
2021/04/22 06:26:18;;;;;;;25.38;18.25;;;11.10;71.50;;;;;;5100689;28;27464;-56
2021/04/22 06:30:24;;;;;;;31.90;21.70;;;11.20;72.20;;;;;;5100652;28;27411;-56
2021/04/22 06:33:23;;;;;;;17.90;14.05;;;11.30;72.20;;;;;;5103649;28;27465;-56
2021/04/22 06:36:51;;;;;;;33.03;22.60;;;11.40;72.30;;;;;;5104078;28;27336;-56
2021/04/22 06:40:31;;;;;;;24.30;17.00;;;11.50;71.90;;;;;;5105506;27;27348;-56
2021/04/22 06:43:59;;;;;;;28.58;19.55;;;11.60;71.90;;;;;;5107553;28;27373;-56
2021/04/22 06:47:49;;;;;;;26.77;19.38;;;11.80;71.80;;;;;;5106942;28;27364;-56
2021/04/22 06:50:57;;;;;;;27.83;20.48;;;11.90;72.10;;;;;;5106045;28;27599;-56
2021/04/22 06:54:24;;;;;;;29.83;20.85;;;12.10;71.40;;;;;;5106797;28;27395;-56
2021/04/22 06:58:24;;;;;;;33.30;20.63;;;12.40;70.90;;;;;;5104041;28;27368;-57
2021/04/22 07:01:51;;;;;;;26.08;20.08;;;12.60;69.70;;;;;;5106955;28;27576;-57
2021/04/22 07:05:40;;;;;;;27.52;20.52;;;12.80;69.80;;;;;;5104065;28;27377;-57
2021/04/22 07:09:10;;;;;;;28.52;20.83;;;12.80;69.70;;;;;;5104855;28;27459;-57
2021/04/22 07:12:37;;;;;;;28.10;20.05;;;12.90;69.40;;;;;;5107194;28;27340;-57
2021/04/22 07:15:57;;;;;;;23.90;19.77;;;13.00;69.50;;;;;;5103086;28;27412;-57
2021/04/22 07:19:24;;;;;;;27.73;19.65;;;13.20;68.50;;;;;;5107138;28;27426;-57
2021/04/22 07:22:55;;;;;;;27.20;20.13;;;13.50;68.20;;;;;;5104072;28;27312;-59
2021/04/22 07:26:08;;;;;;;27.20;19.58;;;13.60;67.30;;;;;;5103927;28;27880;-57
2021/04/22 07:29:21;;;;;;;28.75;19.77;;;14.00;66.90;;;;;;5107097;28;27501;-57
2021/04/22 07:32:33;;;;;;;28.17;20.25;;;14.40;66.60;;;;;;5106156;28;26917;-57
2021/04/22 07:36:00;;;;;;;25.98;19.20;;;14.60;65.30;;;;;;5107093;28;27391;-57
2021/04/22 07:39:28;;;;;;;26.60;20.50;;;14.50;65.10;;;;;;5105220;28;27422;-57
2021/04/22 07:43:01;;;;;;;27.10;19.63;;;14.40;66.00;;;;;;5104977;28;27505;-57
2021/04/22 07:46:03;;;;;;;26.42;20.75;;;14.30;66.10;;;;;;5106065;28;27570;-57
2021/04/22 07:49:01;;;;;;;28.30;20.38;;;14.20;66.30;;;;;;5106887;28;27518;-57
2021/04/22 07:52:28;;;;;;;27.25;19.33;;;14.10;65.90;;;;;;5106031;27;27369;-57
2021/04/22 07:56:47;;;;;;;31.40;19.98;;;13.90;67.00;;;;;;5103266;28;27418;-57
2021/04/22 08:00:15;;;;;;;27.95;19.13;;;13.90;66.70;;;;;;5105908;28;27621;-57
2021/04/22 08:03:41;;;;;;;32.42;21.05;;;13.90;66.40;;;;;;5105991;28;27320;-57
2021/04/22 08:06:52;;;;;;;25.98;17.83;;;14.00;66.10;;;;;;5105372;28;27401;-57
2021/04/22 08:10:18;;;;;;;33.03;19.75;;;14.10;66.60;;;;;;5105059;28;27435;-57
2021/04/22 08:13:32;;;;;;;27.20;19.27;;;14.30;66.90;;;;;;5106279;28;27402;-57
2021/04/22 08:16:42;;;;;;;26.08;20.20;;;14.90;65.90;;;;;;5106070;28;27537;-57
2021/04/22 08:19:55;;;;;;;30.70;18.95;;;15.40;64.50;;;;;;5105633;28;27935;-57
2021/04/22 08:23:23;;;;;;;31.20;20.23;;;15.60;63.50;;;;;;5103067;28;27389;-57
2021/04/22 08:26:54;;;;;;;25.35;18.10;;;15.70;62.20;;;;;;5102799;28;27353;-57
2021/04/22 08:30:08;;;;;;;29.13;20.83;;;16.00;63.10;;;;;;5105532;28;27408;-57
2021/04/22 08:33:33;;;;;;;24.08;18.33;;;16.60;62.60;;;;;;5106170;28;27427;-57
2021/04/22 08:36:47;;;;;;;23.77;18.17;;;16.80;60.80;;;;;;5105732;28;27415;-57
2021/04/22 08:40:14;;;;;;;23.75;17.88;;;16.90;60.50;;;;;;5106156;28;27420;-57
2021/04/22 08:43:23;;;;;;;25.60;16.85;;;17.20;59.70;;;;;;5105736;28;26963;-57
2021/04/22 08:46:23;;;;;;;27.25;17.38;;;17.30;60.00;;;;;;5105021;28;29022;-57
2021/04/22 08:49:33;;;;;;;23.25;16.35;;;17.30;59.30;;;;;;5105348;28;27440;-57
2021/04/22 08:52:47;;;;;;;21.13;16.83;;;17.20;60.70;;;;;;5104829;28;27326;-57
2021/04/22 08:55:33;;;;;;;23.73;16.48;;;17.10;59.70;;;;;;5105579;28;27368;-56
2021/04/22 08:58:46;;;;;;;18.40;15.18;;;16.90;59.00;;;;;;5105104;28;27955;-57
2021/04/22 09:02:13;;;;;;;23.15;16.88;;;16.60;60.30;;;;;;5105728;28;27423;-57
2021/04/22 09:05:27;;;;;;;23.55;16.48;;;16.60;63.10;;;;;;5103444;28;27523;-57
2021/04/22 09:08:43;;;;;;;31.98;16.30;;;16.50;62.40;;;;;;5080786;28;27458;-56
2021/04/22 09:11:57;;;;;;;19.45;15.45;;;16.50;62.80;;;;;;5105240;28;27378;-57
2021/04/22 09:15:18;;;;;;;31.08;15.40;;;16.40;62.90;;;;;;5105045;28;27390;-56
2021/04/22 09:18:06;;;;;;;25.30;15.73;;;16.30;63.00;;;;;;5103833;28;27454;-56
2021/04/22 09:21:25;;;;;;;17.52;14.07;;;16.20;63.50;;;;;;5101953;28;27323;-57
2021/04/22 09:24:13;;;;;;;20.35;15.82;;;16.20;63.30;;;;;;5101778;28;27408;-57
2021/04/22 09:27:24;;;;;;;22.52;15.25;;;16.40;62.10;;;;;;5105240;28;27411;-57
2021/04/22 09:30:51;;;;;;;20.58;13.25;;;16.50;62.20;;;;;;5104727;28;27448;-57
2021/04/22 09:34:26;;;;;;;19.45;13.75;;;16.80;62.10;;;;;;5104786;28;27437;-57
2021/04/22 09:37:37;;;;;;;21.60;14.82;;;17.00;60.00;;;;;;5101728;28;27918;-56
2021/04/22 09:40:58;;;;;;;20.50;12.68;;;17.00;60.20;;;;;;5104246;28;27362;-57
2021/04/22 09:44:05;;;;;;;15.55;12.23;;;17.10;60.80;;;;;;5104118;28;27473;-57
2021/04/22 09:47:30;;;;;;;19.27;12.52;;;17.10;62.40;;;;;;5103584;28;27723;-57
2021/04/22 09:50:43;;;;;;;22.63;13.88;;;17.30;59.10;;;;;;5104646;28;27930;-57
2021/04/22 09:53:43;;;;;;;15.65;13.18;;;17.80;59.70;;;;;;5104673;28;27461;-57
2021/04/22 09:56:44;;;;;;;20.05;12.75;;;18.30;60.90;;;;;;5104620;28;27337;-57
2021/04/22 09:59:42;;;;;;;32.67;13.93;;;18.60;60.30;;;;;;5104880;28;27461;-57
2021/04/22 10:02:56;;;;;;;16.10;11.68;;;18.60;59.70;;;;;;5104521;28;27864;-57
2021/04/22 10:06:22;;;;;;;21.38;13.73;;;18.60;60.20;;;;;;5104483;28;27348;-57
2021/04/22 10:09:28;;;;;;;17.17;11.90;;;18.50;60.40;;;;;;5104218;28;27386;-58
2021/04/22 10:12:33;;;;;;;17.67;11.82;;;18.80;58.70;;;;;;5104523;28;27346;-58
2021/04/22 10:15:48;;;;;;;18.77;12.95;;;19.10;58.50;;;;;;5106780;27;27921;-58
2021/04/22 10:18:47;;;;;;;18.38;13.02;;;19.50;57.50;;;;;;5105422;28;27407;-58
2021/04/22 10:21:41;;;;;;;23.85;12.85;;;19.80;57.40;;;;;;5108353;28;27399;-57
2021/04/22 10:25:09;;;;;;;19.70;14.23;;;20.10;58.00;;;;;;5108316;28;27461;-57
2021/04/22 10:28:03;;;;;;;15.88;12.35;;;20.30;55.70;;;;;;5107271;28;27453;-57
2021/04/22 10:31:00;;;;;;;21.00;11.98;;;20.40;55.90;;;;;;5107475;28;27502;-58
2021/04/22 10:34:07;;;;;;;18.52;12.05;;;20.50;56.50;;;;;;5108162;28;27395;-58
2021/04/22 10:37:34;;;;;;;18.63;13.05;;;20.60;55.40;;;;;;5107496;28;27320;-58
2021/04/22 10:40:44;;;;;;;14.43;11.13;;;20.80;55.00;;;;;;5107053;28;27434;-58
2021/04/22 10:43:50;;;;;;;16.95;12.15;;;20.80;53.90;;;;;;5106407;28;27450;-58
2021/04/22 10:46:39;;;;;;;16.70;11.15;;;20.80;54.90;;;;;;5104547;28;27399;-58
2021/04/22 10:49:24;;;;;;;15.30;12.48;;;20.90;55.70;;;;;;5107109;28;27412;-58
2021/04/22 10:52:29;;;;;;;21.30;11.68;;;21.00;55.90;;;;;;5092416;28;27936;-58
2021/04/22 10:55:50;;;;;;;15.45;11.63;;;21.20;55.60;;;;;;5107522;28;27376;-58
2021/04/22 10:59:03;;;;;;;13.65;11.40;;;21.30;55.00;;;;;;5103856;28;27370;-58
2021/04/22 11:01:56;;;;;;;21.00;11.60;;;21.40;54.50;;;;;;5107071;28;27514;-58
2021/04/22 11:05:11;;;;;;;12.30;10.10;;;21.30;54.10;;;;;;5103761;28;27451;-58
2021/04/22 11:08:57;;;;;;;14.70;11.00;;;21.20;55.10;;;;;;5106801;28;27457;-57
2021/04/22 11:12:22;;;;;;;16.60;11.20;;;21.10;55.20;;;;;;5107359;28;27469;-58
2021/04/22 11:15:18;;;;;;;17.95;9.82;;;21.10;56.30;;;;;;5103913;28;27389;-58
2021/04/22 11:18:41;;;;;;;15.70;10.65;;;21.20;55.60;;;;;;5107172;28;27443;-58
2021/04/22 11:21:31;;;;;;;13.60;10.57;;;21.20;55.80;;;;;;5107430;28;27453;-58
2021/04/22 11:24:40;;;;;;;16.73;10.02;;;21.30;56.20;;;;;;5107057;28;27279;-58
2021/04/22 11:27:55;;;;;;;16.35;11.18;;;21.40;56.20;;;;;;5106162;27;27441;-58
2021/04/22 11:31:07;;;;;;;19.30;11.25;;;21.50;57.40;;;;;;5106878;28;27466;-58
2021/04/22 11:34:13;;;;;;;14.30;9.90;;;21.60;56.60;;;;;;5106567;28;27378;-58
2021/04/22 11:37:05;;;;;;;14.48;10.70;;;21.70;56.80;;;;;;5106991;28;27383;-58
2021/04/22 11:40:21;;;;;;;17.23;10.93;;;21.70;57.50;;;;;;5106766;28;27380;-58
2021/04/22 11:44:06;;;;;;;16.67;11.50;;;21.80;57.20;;;;;;5106250;28;27497;-58
2021/04/22 11:47:14;;;;;;;15.43;10.43;;;22.00;57.60;;;;;;5105773;28;27407;-58
2021/04/22 11:50:11;;;;;;;15.38;10.80;;;22.10;57.80;;;;;;5106549;28;27524;-58
2021/04/22 11:53:21;;;;;;;16.65;11.15;;;22.20;56.00;;;;;;5106804;28;27441;-58
2021/04/22 11:56:48;;;;;;;14.15;9.70;;;22.20;55.30;;;;;;5105659;28;27335;-58
2021/04/22 12:00:22;;;;;;;14.13;10.27;;;22.20;56.80;;;;;;5106711;28;27374;-58
2021/04/22 12:03:54;;;;;;;16.55;10.60;;;22.30;57.20;;;;;;5106865;28;27444;-58
2021/04/22 12:07:19;;;;;;;13.00;9.50;;;22.40;57.40;;;;;;5105332;28;27464;-58
2021/04/22 12:10:33;;;;;;;12.60;8.85;;;22.50;56.70;;;;;;5106199;28;27429;-58
2021/04/22 12:13:44;;;;;;;16.35;10.20;;;22.70;57.60;;;;;;5104935;28;27565;-58
2021/04/22 12:16:51;;;;;;;16.77;9.40;;;22.80;56.20;;;;;;5106336;28;27485;-58
2021/04/22 12:19:44;;;;;;;13.73;8.93;;;22.80;56.70;;;;;;5105644;28;27445;-58
2021/04/22 12:23:08;;;;;;;10.05;8.02;;;22.70;54.30;;;;;;5106324;28;27389;-58
2021/04/22 12:26:32;;;;;;;12.13;8.13;;;22.70;55.80;;;;;;5106320;28;27433;-58
2021/04/22 12:29:43;;;;;;;9.90;7.55;;;22.60;54.20;;;;;;5105917;28;27389;-58
2021/04/22 12:32:58;;;;;;;11.45;8.32;;;22.40;53.80;;;;;;5105849;28;27576;-58
2021/04/22 12:36:10;;;;;;;9.48;7.07;;;22.40;51.80;;;;;;5105640;28;27967;-58
2021/04/22 12:39:37;;;;;;;11.02;6.55;;;22.30;50.80;;;;;;5104717;28;27569;-58
2021/04/22 12:42:28;;;;;;;12.73;6.03;;;22.20;54.10;;;;;;5105761;28;27411;-58
2021/04/22 12:45:39;;;;;;;8.25;5.53;;;22.10;54.40;;;;;;5101679;28;27324;-58
2021/04/22 12:48:36;;;;;;;8.98;5.10;;;22.00;56.30;;;;;;5105618;28;27489;-58
2021/04/22 12:51:31;;;;;;;6.10;4.78;;;22.10;55.50;;;;;;5105606;28;27492;-58
2021/04/22 12:54:58;;;;;;;8.23;5.03;;;22.10;55.70;;;;;;5105563;28;27379;-58
2021/04/22 12:58:33;;;;;;;11.57;5.45;;;22.10;54.30;;;;;;5104848;28;27402;-58
2021/04/22 13:01:39;;;;;;;8.20;4.30;;;22.10;54.00;;;;;;5105707;28;27378;-58
2021/04/22 13:04:43;;;;;;;8.27;4.47;;;22.20;54.30;;;;;;5104926;28;27440;-58
2021/04/22 13:07:35;;;;;;;7.40;3.97;;;22.20;53.80;;;;;;5105409;28;27386;-58
2021/04/22 13:11:03;;;;;;;7.63;4.38;;;22.10;52.40;;;;;;5090377;28;27380;-58
2021/04/22 13:14:16;;;;;;;8.13;4.05;;;22.00;54.40;;;;;;5105177;28;27493;-58
2021/04/22 13:17:11;;;;;;;5.22;3.80;;;21.90;53.80;;;;;;5105029;28;27409;-58
2021/04/22 13:20:23;;;;;;;6.88;3.92;;;21.90;55.00;;;;;;5105239;28;27386;-58
2021/04/22 13:23:37;;;;;;;6.25;3.50;;;21.80;54.60;;;;;;5104907;28;27524;-58
2021/04/22 13:26:31;;;;;;;10.32;3.35;;;21.80;55.50;;;;;;5102017;28;27413;-58
2021/04/22 13:29:47;;;;;;;4.50;2.75;;;21.80;55.30;;;;;;5104938;28;27441;-58
2021/04/22 13:33:00;;;;;;;4.65;2.92;;;21.90;53.70;;;;;;5104867;28;27336;-58
2021/04/22 13:36:12;;;;;;;7.20;2.58;;;22.00;51.40;;;;;;5104610;28;27418;-58
2021/04/22 13:39:24;;;;;;;3.92;2.40;;;22.00;50.80;;;;;;5103331;28;27391;-58
2021/04/22 13:42:54;;;;;;;6.38;2.97;;;22.10;48.50;;;;;;5104521;28;27412;-58
2021/04/22 13:46:00;;;;;;;7.70;2.83;;;22.10;50.00;;;;;;5103831;28;28190;-58
2021/04/22 13:49:03;;;;;;;3.90;2.05;;;22.10;46.70;;;;;;5100845;28;27403;-58
2021/04/22 13:52:06;;;;;;;3.53;2.08;;;22.00;47.60;;;;;;5103746;28;27585;-58
2021/04/22 13:55:30;;;;;;;5.40;2.15;;;21.90;48.90;;;;;;5103908;28;27387;-58
2021/04/22 13:58:37;;;;;;;5.00;2.10;;;21.90;49.10;;;;;;5103690;28;27343;-58
2021/04/22 14:02:05;;;;;;;4.85;2.00;;;21.80;48.40;;;;;;5104891;28;27357;-58
2021/04/22 14:05:33;;;;;;;3.55;2.05;;;21.70;48.40;;;;;;5104473;28;27543;-58
2021/04/22 14:08:32;;;;;;;4.60;2.03;;;21.70;46.90;;;;;;5103688;28;27533;-58
2021/04/22 14:11:46;;;;;;;6.03;2.30;;;21.80;46.20;;;;;;5104520;28;27424;-58
2021/04/22 14:15:13;;;;;;;3.67;1.60;;;21.80;46.00;;;;;;5101440;28;27381;-58
2021/04/22 14:18:40;;;;;;;3.20;2.08;;;21.90;46.00;;;;;;5103175;28;28054;-58
2021/04/22 14:21:46;;;;;;;6.35;2.00;;;21.90;45.00;;;;;;5104233;28;27399;-58
2021/04/22 14:24:57;;;;;;;4.38;1.92;;;21.80;44.70;;;;;;5104612;28;27422;-58
2021/04/22 14:28:24;;;;;;;6.90;2.00;;;21.80;45.20;;;;;;5104504;28;27327;-58
2021/04/22 14:31:54;;;;;;;4.90;1.75;;;21.80;43.80;;;;;;5103090;28;27378;-57
2021/04/22 14:35:08;;;;;;;6.90;2.03;;;21.70;44.90;;;;;;5102984;28;27412;-58
2021/04/22 14:38:35;;;;;;;6.60;2.00;;;21.70;43.90;;;;;;5104285;28;27473;-57
2021/04/22 14:42:02;;;;;;;3.35;1.73;;;21.80;42.10;;;;;;5104143;28;27425;-57
2021/04/22 14:45:39;;;;;;;4.38;1.65;;;21.70;40.80;;;;;;5103437;28;27887;-58
2021/04/22 14:48:23;;;;;;;3.03;1.85;;;21.70;42.00;;;;;;5100231;28;27411;-58
2021/04/22 14:51:36;;;;;;;4.45;1.73;;;21.70;41.10;;;;;;5104036;28;27311;-57
2021/04/22 14:54:21;;;;;;;9.32;1.92;;;21.60;40.80;;;;;;5102775;28;27402;-58
2021/04/22 14:57:19;;;;;;;3.63;1.90;;;21.60;40.90;;;;;;5103878;28;27847;-57
2021/04/22 15:00:19;;;;;;;4.38;1.90;;;21.60;40.60;;;;;;5104303;27;27350;-57
2021/04/22 15:03:46;;;;;;;4.03;2.25;;;21.60;41.40;;;;;;5107723;28;27469;-57
2021/04/22 15:07:05;;;;;;;4.53;1.58;;;21.60;39.80;;;;;;5107530;28;27435;-57
2021/04/22 15:10:13;;;;;;;3.65;1.50;;;21.60;39.90;;;;;;5107474;28;27996;-58
2021/04/22 15:13:38;;;;;;;5.38;2.05;;;21.60;37.00;;;;;;5106858;28;27408;-57
2021/04/22 15:16:47;;;;;;;2.90;1.52;;;21.60;38.00;;;;;;5107123;28;27419;-57
2021/04/22 15:20:00;;;;;;;3.05;1.60;;;21.60;39.00;;;;;;5103810;28;27367;-57
2021/04/22 15:23:31;;;;;;;3.83;1.95;;;21.50;39.60;;;;;;5103725;28;27304;-57
2021/04/22 15:26:59;;;;;;;7.70;1.85;;;21.50;38.50;;;;;;5103650;28;27509;-57
2021/04/22 15:30:27;;;;;;;3.97;1.63;;;21.50;37.30;;;;;;5106210;28;27506;-57
2021/04/22 15:33:37;;;;;;;3.50;1.90;;;21.50;37.60;;;;;;5106265;28;27615;-57
2021/04/22 15:36:35;;;;;;;3.97;2.05;;;21.40;38.20;;;;;;5107126;28;27980;-57
2021/04/22 15:39:32;;;;;;;7.93;2.25;;;21.40;37.90;;;;;;5106302;28;27417;-57
2021/04/22 15:42:25;;;;;;;7.13;1.80;;;21.30;38.50;;;;;;5107079;28;27336;-57
2021/04/22 15:45:11;;;;;;;4.93;1.80;;;21.20;40.60;;;;;;5102729;28;27364;-57
2021/04/22 15:48:41;;;;;;;5.38;1.73;;;21.20;40.60;;;;;;5105901;28;27976;-57
2021/04/22 15:52:25;;;;;;;6.53;2.03;;;21.10;41.60;;;;;;5106807;28;27538;-57
2021/04/22 15:55:30;;;;;;;5.80;2.10;;;21.10;38.70;;;;;;5105908;28;27490;-57
2021/04/22 15:58:57;;;;;;;5.88;1.80;;;21.00;40.10;;;;;;5106169;28;27471;-57
2021/04/22 16:02:31;;;;;;;6.00;2.88;;;20.90;40.20;;;;;;5106270;28;27402;-57
2021/04/22 16:06:06;;;;;;;5.20;1.88;;;20.80;39.50;;;;;;5106078;28;27421;-57
2021/04/22 16:09:48;;;;;;;5.70;2.00;;;20.70;41.40;;;;;;5106069;28;27427;-57
2021/04/22 16:12:53;;;;;;;9.38;2.05;;;20.60;41.80;;;;;;5105289;27;27372;-57
2021/04/22 16:16:21;;;;;;;7.90;2.00;;;20.60;41.20;;;;;;5106439;28;27370;-57
2021/04/22 16:19:53;;;;;;;5.50;1.80;;;20.50;40.10;;;;;;5106068;28;27536;-57
2021/04/22 16:23:11;;;;;;;4.20;1.70;;;20.40;39.10;;;;;;5102821;28;27476;-57
2021/04/22 16:26:18;;;;;;;4.75;1.98;;;20.40;39.20;;;;;;5106324;28;27450;-57
2021/04/22 16:29:31;;;;;;;4.43;1.65;;;20.40;36.10;;;;;;5105820;28;27472;-57
2021/04/22 16:32:42;;;;;;;6.53;1.75;;;20.30;37.50;;;;;;5105922;28;27420;-57
2021/04/22 16:36:09;;;;;;;6.88;2.10;;;20.20;37.50;;;;;;5104493;28;27367;-57
2021/04/22 16:39:37;;;;;;;4.85;1.58;;;20.10;38.60;;;;;;5104305;28;27706;-57
2021/04/22 16:43:11;;;;;;;3.17;1.40;;;19.90;37.70;;;;;;5105739;28;27839;-57
2021/04/22 16:46:47;;;;;;;4.07;1.92;;;19.90;37.20;;;;;;5102967;28;27604;-57